Decoded Metar for LFKC (CALVI in CORSE ISL.) (IATA:CLY) | Meteo·Mobile Aviation Weather
aviador You're here:

LFKC Decoded Metar

CALVI in CORSE ISL.
Report Time2018-10-18 16:30:00
UTC Time2018-10-18 16:57:48
Flight Rules vfr VFR
WindVRB at 02 kt
Visibility9999 m
Phenomena:N/A
Clouds:N/A
Expected CloudBase > 2,400 ft AGL from Temp-Dew spread
CeilingNone
Temp22°C (ISA +7)
Dew Point16°C (69% RH)
QNH1010 hPa
Density Alt1,394 ft
Elevation190 ft
Report Wrong Elevation
Raw Report
METAR LFKC 181630Z AUTO VRB02KT CAVOK 22/16 Q1010 NOSIG=

Extra information for LFKC:More info

Metar Taf Metar & Taf Last 4 Metars F.Rules Stats Wind Profile Meteogram Temp Stats Airport Information Weather charts Add Link Nearby VenuesMetar ALERT Operation Metar Decoded Social comments